Time;durP1;ratioP1;P1;durP2;ratioP2;P2;SDS_P1;SDS_P2;PMS_P1;PMS_P2;Temp;Humidity;BMP_temperature;BMP_pressure;BME280_temperature;BME280_humidity;BME280_pressure;Samples;Min_cycle;Max_cycle;Signal;HPM_P1;HPM_P2
2020/12/17 00:04:15;;;;;;;165.38;34.40;;;8.00;99.90;;;;;;10354083;28;20052;-70
2020/12/17 00:09:17;;;;;;;42.90;26.80;;;7.90;99.90;;;;;;10351659;28;20129;-70
2020/12/17 00:14:18;;;;;;;99.65;39.30;;;7.90;99.90;;;;;;10374001;28;20046;-70
2020/12/17 00:19:20;;;;;;;75.10;35.55;;;8.00;99.90;;;;;;10350925;28;20049;-69
2020/12/17 00:24:21;;;;;;;73.65;34.10;;;7.80;99.90;;;;;;10350076;28;20104;-70
2020/12/17 00:29:23;;;;;;;186.43;42.17;;;7.70;99.90;;;;;;10346971;28;20077;-70
2020/12/17 00:34:24;;;;;;;237.93;33.85;;;7.70;99.90;;;;;;10353001;28;20137;-70
2020/12/17 00:39:26;;;;;;;472.77;44.55;;;7.70;99.90;;;;;;10366191;28;20058;-69
2020/12/17 00:44:27;;;;;;;480.05;37.85;;;7.60;99.90;;;;;;10372699;28;20537;-69
2020/12/17 00:49:28;;;;;;;228.65;32.13;;;7.40;99.90;;;;;;10372860;28;20058;-70
2020/12/17 00:54:30;;;;;;;491.23;39.75;;;7.50;99.90;;;;;;10341343;28;20046;-69
2020/12/17 00:59:31;;;;;;;478.60;34.53;;;7.50;99.90;;;;;;10372646;28;20108;-69
2020/12/17 01:04:33;;;;;;;399.52;32.05;;;7.30;99.90;;;;;;10374614;28;20133;-69
2020/12/17 01:09:38;;;;;;;453.52;41.47;;;7.30;99.90;;;;;;10372311;28;20081;-69
2020/12/17 01:14:40;;;;;;;380.83;35.97;;;7.30;99.90;;;;;;10351280;28;20101;-69
2020/12/17 01:19:42;;;;;;;228.48;27.95;;;7.30;99.90;;;;;;10334387;28;20097;-69
2020/12/17 01:24:43;;;;;;;482.05;37.45;;;7.30;99.90;;;;;;10368452;28;20045;-68
2020/12/17 01:29:45;;;;;;;179.68;21.92;;;7.20;99.90;;;;;;10385831;28;20418;-70
2020/12/17 01:34:46;;;;;;;375.88;37.05;;;7.10;99.90;;;;;;10342283;28;20505;-70
2020/12/17 01:39:55;;;;;;;502.88;39.65;;;7.10;99.90;;;;;;10361109;28;20076;-70
2020/12/17 01:44:57;;;;;;;350.17;31.77;;;7.00;99.90;;;;;;10361376;28;20436;-69
2020/12/17 01:50:00;;;;;;;341.70;29.13;;;7.00;99.90;;;;;;10344173;28;20050;-70
2020/12/17 01:55:02;;;;;;;383.00;37.58;;;6.90;99.90;;;;;;10361725;28;20050;-70
2020/12/17 02:00:06;;;;;;;563.25;40.80;;;6.80;99.90;;;;;;10346185;28;20046;-69
2020/12/17 02:05:08;;;;;;;442.35;30.77;;;6.90;99.90;;;;;;10371522;28;20049;-69
2020/12/17 02:10:14;;;;;;;353.52;32.75;;;6.90;99.90;;;;;;10370315;28;20334;-70
2020/12/17 02:15:18;;;;;;;266.90;31.08;;;7.00;99.90;;;;;;10369687;28;20559;-69
2020/12/17 02:20:19;;;;;;;237.63;33.80;;;7.00;99.90;;;;;;10368549;28;20135;-70
2020/12/17 02:25:22;;;;;;;364.25;36.58;;;7.00;99.90;;;;;;10370756;28;20100;-69
2020/12/17 02:30:23;;;;;;;307.13;33.10;;;7.10;99.90;;;;;;10342579;28;20050;-69
2020/12/17 02:35:24;;;;;;;218.68;27.65;;;7.10;99.90;;;;;;10329998;28;20495;-70
2020/12/17 02:40:32;;;;;;;261.38;29.08;;;7.00;99.90;;;;;;10365592;28;20053;-70
2020/12/17 02:45:33;;;;;;;354.08;36.40;;;7.00;99.90;;;;;;10331188;28;20120;-70
2020/12/17 02:50:35;;;;;;;285.52;29.83;;;6.90;99.90;;;;;;10355442;28;20054;-70
2020/12/17 02:55:37;;;;;;;475.65;40.65;;;7.00;99.90;;;;;;10356846;28;20050;-70
2020/12/17 03:00:39;;;;;;;287.88;34.90;;;7.10;99.90;;;;;;10340292;28;20557;-69
2020/12/17 03:05:40;;;;;;;468.58;48.28;;;7.20;99.90;;;;;;10368922;28;20042;-70
2020/12/17 03:10:52;;;;;;;616.38;40.15;;;7.00;99.90;;;;;;10357008;28;20053;-69
2020/12/17 03:15:53;;;;;;;330.95;29.23;;;6.70;99.90;;;;;;10341755;28;20080;-69
2020/12/17 03:20:55;;;;;;;230.90;26.50;;;6.70;99.90;;;;;;10367116;28;20056;-69
2020/12/17 03:25:56;;;;;;;282.13;34.83;;;6.80;99.90;;;;;;10364479;28;20073;-69
2020/12/17 03:30:58;;;;;;;238.77;30.83;;;6.90;99.90;;;;;;10344911;28;20065;-69
2020/12/17 03:35:59;;;;;;;257.95;32.45;;;6.90;99.90;;;;;;10350100;28;20081;-69
2020/12/17 03:41:16;;;;;;;165.77;28.30;;;6.90;99.90;;;;;;10366990;28;20060;-69
2020/12/17 03:46:18;;;;;;;390.67;33.65;;;6.90;99.90;;;;;;10346386;28;20070;-69
2020/12/17 03:51:19;;;;;;;316.33;28.50;;;6.80;99.90;;;;;;10350830;28;20573;-70
2020/12/17 03:56:21;;;;;;;238.88;28.13;;;6.80;99.90;;;;;;10370555;28;20060;-69
2020/12/17 04:01:22;;;;;;;154.55;24.80;;;6.80;99.90;;;;;;10374643;28;20482;-69
2020/12/17 04:06:23;;;;;;;291.08;34.08;;;6.70;99.90;;;;;;10374820;28;20042;-69
2020/12/17 04:11:32;;;;;;;306.00;27.73;;;6.60;99.90;;;;;;10359228;28;20517;-69
2020/12/17 04:16:33;;;;;;;341.95;33.97;;;6.70;99.90;;;;;;10365289;28;20115;-69
2020/12/17 04:21:34;;;;;;;283.88;30.75;;;6.80;99.90;;;;;;10360469;28;20046;-69
2020/12/17 04:26:36;;;;;;;279.60;29.05;;;6.80;99.90;;;;;;10336523;28;20058;-69
2020/12/17 04:31:37;;;;;;;146.50;22.33;;;6.80;99.90;;;;;;10364099;28;20185;-69
2020/12/17 04:36:39;;;;;;;43.88;18.05;;;6.70;99.90;;;;;;10373660;28;20490;-69
2020/12/17 04:41:53;;;;;;;285.05;30.75;;;6.80;99.90;;;;;;10344226;28;20149;-69
2020/12/17 04:47:05;;;;;;;435.33;36.50;;;6.80;99.90;;;;;;10334749;28;20478;-69
2020/12/17 04:52:07;;;;;;;370.83;32.35;;;6.80;99.90;;;;;;10367960;28;20077;-69
2020/12/17 04:57:15;;;;;;;208.60;30.15;;;6.70;99.90;;;;;;10372553;28;20045;-69
2020/12/17 05:02:20;;;;;;;32.90;18.58;;;6.70;99.90;;;;;;10354921;28;20387;-69
2020/12/17 05:07:23;;;;;;;31.17;19.92;;;6.70;99.90;;;;;;10372955;28;20417;-70
2020/12/17 05:12:24;;;;;;;26.83;18.60;;;6.80;99.90;;;;;;10333717;28;20510;-70
2020/12/17 05:17:26;;;;;;;43.65;23.35;;;6.80;99.90;;;;;;10371258;28;20107;-69
2020/12/17 05:22:28;;;;;;;31.23;19.15;;;6.80;99.90;;;;;;10333375;28;20050;-69
2020/12/17 05:27:30;;;;;;;29.65;19.33;;;6.80;99.90;;;;;;10332830;28;20135;-69
2020/12/17 05:32:32;;;;;;;34.17;22.00;;;6.90;99.90;;;;;;10333470;28;20062;-69
2020/12/17 05:37:34;;;;;;;52.45;24.90;;;6.90;99.90;;;;;;10333570;28;20054;-70
2020/12/17 05:42:35;;;;;;;44.13;22.60;;;6.90;99.90;;;;;;10332735;28;20046;-70
2020/12/17 05:47:37;;;;;;;32.28;21.55;;;6.90;99.90;;;;;;10368897;28;20442;-69
2020/12/17 05:52:39;;;;;;;29.88;19.20;;;6.90;99.90;;;;;;10364471;28;20038;-70
2020/12/17 05:57:53;;;;;;;35.85;21.42;;;6.90;99.90;;;;;;10332853;28;20450;-70
2020/12/17 06:02:54;;;;;;;28.38;20.08;;;6.90;99.90;;;;;;10350124;28;20065;-69
2020/12/17 06:07:59;;;;;;;38.22;23.10;;;6.90;99.90;;;;;;10338401;28;20623;-69
2020/12/17 06:13:02;;;;;;;27.30;19.55;;;6.90;99.90;;;;;;10369914;28;20120;-69
2020/12/17 06:18:04;;;;;;;37.70;22.15;;;6.90;99.90;;;;;;10368293;28;20049;-69
2020/12/17 06:23:09;;;;;;;26.08;18.52;;;6.90;99.90;;;;;;10384651;28;20470;-70
2020/12/17 06:28:32;;;;;;;37.22;20.98;;;6.90;99.90;;;;;;10369606;28;20286;-70
2020/12/17 06:33:35;;;;;;;30.77;19.70;;;7.00;99.90;;;;;;10363027;28;20046;-69
2020/12/17 06:38:39;;;;;;;31.88;20.48;;;7.00;99.90;;;;;;10369545;28;20054;-69
2020/12/17 06:43:40;;;;;;;24.27;17.67;;;7.00;99.90;;;;;;10369595;28;20084;-69
2020/12/17 06:48:41;;;;;;;23.08;17.45;;;6.90;99.90;;;;;;10369111;28;20080;-69
2020/12/17 06:53:43;;;;;;;24.65;18.50;;;7.00;99.90;;;;;;10365300;28;20049;-69
2020/12/17 06:58:47;;;;;;;33.95;23.10;;;7.10;99.90;;;;;;10337707;28;20065;-69
2020/12/17 07:03:50;;;;;;;42.97;22.70;;;7.20;99.90;;;;;;10357630;28;20054;-70
2020/12/17 07:08:54;;;;;;;28.88;19.55;;;7.10;99.90;;;;;;10341419;28;20401;-69
2020/12/17 07:13:57;;;;;;;30.75;21.23;;;7.00;99.90;;;;;;10367701;28;20046;-69
2020/12/17 07:19:21;;;;;;;26.85;19.20;;;7.10;99.90;;;;;;10368936;28;20084;-69
2020/12/17 07:24:27;;;;;;;32.88;21.50;;;7.20;99.90;;;;;;10359676;28;20482;-69
2020/12/17 07:29:36;;;;;;;39.60;23.17;;;7.30;99.90;;;;;;10368749;28;20093;-69
2020/12/17 07:34:38;;;;;;;34.35;20.30;;;7.30;99.90;;;;;;10361878;28;20102;-69
2020/12/17 07:39:40;;;;;;;42.00;24.08;;;7.20;99.90;;;;;;10337169;28;20050;-69
2020/12/17 07:44:41;;;;;;;39.78;24.02;;;7.30;99.90;;;;;;10366010;28;20073;-69
2020/12/17 07:49:42;;;;;;;38.17;23.65;;;7.40;99.90;;;;;;10375160;28;20082;-69
2020/12/17 07:54:45;;;;;;;36.80;24.65;;;7.40;99.90;;;;;;10337176;28;20137;-69
2020/12/17 07:59:46;;;;;;;70.60;32.83;;;7.50;99.90;;;;;;10337918;28;20153;-70
2020/12/17 08:04:53;;;;;;;50.13;24.63;;;7.60;99.90;;;;;;10375313;28;20050;-70
2020/12/17 08:10:01;;;;;;;43.67;26.88;;;7.60;99.90;;;;;;10373782;28;20072;-69
2020/12/17 08:15:09;;;;;;;40.50;25.58;;;7.70;99.90;;;;;;10340135;28;20050;-70
2020/12/17 08:20:14;;;;;;;59.72;30.83;;;7.70;99.90;;;;;;10374945;28;20084;-69
2020/12/17 08:25:16;;;;;;;43.08;24.65;;;7.90;99.90;;;;;;10368651;28;20053;-70
2020/12/17 08:30:20;;;;;;;33.53;21.77;;;8.00;99.90;;;;;;10345268;28;20129;-69
2020/12/17 08:35:24;;;;;;;31.73;21.60;;;8.10;99.90;;;;;;10360764;28;20494;-69
2020/12/17 08:40:28;;;;;;;46.40;25.77;;;8.20;99.90;;;;;;10345714;28;20052;-70
2020/12/17 08:45:30;;;;;;;39.38;25.15;;;8.30;99.90;;;;;;10360094;28;20080;-69
2020/12/17 08:50:34;;;;;;;43.90;26.50;;;8.30;99.90;;;;;;10372540;28;20045;-70
2020/12/17 08:55:35;;;;;;;39.72;24.38;;;8.30;99.90;;;;;;10346426;28;20214;-70
2020/12/17 09:00:37;;;;;;;42.58;24.23;;;8.40;99.90;;;;;;10369715;28;20050;-70
2020/12/17 09:05:38;;;;;;;41.25;24.95;;;8.40;99.90;;;;;;10336605;28;20078;-69
2020/12/17 09:10:40;;;;;;;44.85;24.13;;;8.40;99.90;;;;;;10346698;28;20502;-74
2020/12/17 09:15:41;;;;;;;43.38;24.80;;;8.50;99.90;;;;;;10361968;28;20468;-74
2020/12/17 09:20:43;;;;;;;39.92;23.25;;;8.50;99.90;;;;;;10355442;28;20054;-74
2020/12/17 09:25:44;;;;;;;35.90;21.95;;;8.50;99.90;;;;;;10382902;28;20054;-74
2020/12/17 09:30:46;;;;;;;32.15;19.23;;;8.60;99.90;;;;;;10338841;28;20049;-74
2020/12/17 09:35:47;;;;;;;19.88;15.13;;;8.80;99.90;;;;;;10355731;28;20074;-74
2020/12/17 09:40:53;;;;;;;19.67;14.02;;;8.90;99.90;;;;;;10339267;28;20501;-74
2020/12/17 09:45:56;;;;;;;71.80;18.60;;;9.20;99.90;;;;;;10353233;28;20046;-74
2020/12/17 09:51:02;;;;;;;31.98;19.27;;;9.50;99.90;;;;;;10370328;28;20464;-75
2020/12/17 09:56:11;;;;;;;18.50;12.93;;;9.50;99.90;;;;;;10368434;28;20041;-74
2020/12/17 10:01:15;;;;;;;17.17;10.95;;;9.20;99.90;;;;;;10370176;28;20128;-74
2020/12/17 10:06:17;;;;;;;15.35;11.68;;;9.30;99.90;;;;;;10369294;28;20058;-74
2020/12/17 10:11:18;;;;;;;20.50;12.60;;;9.50;99.90;;;;;;10360861;28;20065;-75
2020/12/17 10:16:20;;;;;;;17.17;11.27;;;9.60;99.90;;;;;;10351644;28;20407;-74
2020/12/17 10:21:21;;;;;;;20.13;11.73;;;9.70;99.90;;;;;;10329017;28;20117;-75
2020/12/17 10:26:23;;;;;;;17.52;10.73;;;9.80;99.90;;;;;;10341819;28;20049;-75
2020/12/17 10:31:28;;;;;;;15.35;11.05;;;10.00;99.90;;;;;;10343382;28;20046;-74
2020/12/17 10:36:29;;;;;;;16.58;11.30;;;10.10;99.90;;;;;;10347876;28;20084;-75
2020/12/17 10:41:31;;;;;;;14.27;9.38;;;10.20;99.90;;;;;;10352505;28;20056;-74
2020/12/17 10:46:35;;;;;;;16.33;10.65;;;10.30;99.90;;;;;;10328795;28;20042;-74
2020/12/17 10:51:42;;;;;;;14.88;10.25;;;10.30;99.90;;;;;;10347408;28;20047;-74
2020/12/17 10:56:45;;;;;;;14.48;9.43;;;10.30;99.90;;;;;;10340041;28;20377;-74
2020/12/17 11:01:47;;;;;;;13.95;10.32;;;10.40;99.90;;;;;;10365073;28;20516;-74
2020/12/17 11:06:49;;;;;;;17.13;10.43;;;10.40;99.90;;;;;;10373427;28;20576;-75
2020/12/17 11:11:52;;;;;;;13.90;9.80;;;10.40;99.90;;;;;;10375280;28;20132;-75
2020/12/17 11:16:53;;;;;;;13.32;8.07;;;10.40;99.90;;;;;;10377564;28;20050;-75
2020/12/17 11:21:59;;;;;;;12.98;7.65;;;10.40;99.90;;;;;;10359901;28;20054;-74
2020/12/17 11:27:00;;;;;;;10.10;5.82;;;10.40;99.90;;;;;;10337526;28;20529;-75
2020/12/17 11:32:02;;;;;;;7.40;5.40;;;10.40;99.90;;;;;;10354776;28;20540;-74
2020/12/17 11:37:04;;;;;;;9.55;5.30;;;10.50;99.90;;;;;;10368511;28;20081;-74
2020/12/17 11:42:07;;;;;;;7.30;4.22;;;10.60;99.90;;;;;;10363316;28;20054;-74
2020/12/17 11:47:09;;;;;;;6.20;3.42;;;10.80;99.90;;;;;;10358845;28;20046;-74
2020/12/17 11:52:10;;;;;;;6.93;2.95;;;11.10;99.90;;;;;;10378120;28;20070;-74
2020/12/17 11:57:12;;;;;;;6.55;3.05;;;11.10;99.90;;;;;;10374799;28;20050;-75
2020/12/17 12:02:13;;;;;;;5.05;2.63;;;11.30;99.90;;;;;;10368444;28;20485;-75
2020/12/17 12:07:15;;;;;;;12.73;5.95;;;11.40;99.90;;;;;;10364542;28;20486;-74
2020/12/17 12:12:16;;;;;;;5.18;2.63;;;11.50;99.90;;;;;;10362646;28;20050;-74
2020/12/17 12:17:18;;;;;;;11.32;4.55;;;11.50;99.40;;;;;;10359809;28;20479;-74
2020/12/17 12:22:19;;;;;;;5.57;2.30;;;11.30;99.50;;;;;;10363148;28;20132;-75
2020/12/17 12:27:21;;;;;;;9.52;4.00;;;11.20;99.60;;;;;;10362066;28;20042;-74
2020/12/17 12:32:22;;;;;;;7.05;3.10;;;11.10;99.00;;;;;;10355773;28;20050;-74
2020/12/17 12:37:24;;;;;;;5.35;2.70;;;11.00;99.10;;;;;;10355272;28;20058;-74
2020/12/17 12:42:26;;;;;;;4.57;2.13;;;11.10;99.00;;;;;;10365796;28;20041;-74
2020/12/17 12:47:29;;;;;;;7.82;2.58;;;11.20;98.60;;;;;;10359391;28;20053;-74
2020/12/17 12:52:31;;;;;;;8.55;3.72;;;11.30;98.60;;;;;;10367413;28;20446;-74
2020/12/17 12:57:34;;;;;;;6.88;3.40;;;11.30;98.00;;;;;;10361988;28;20088;-74
2020/12/17 13:02:35;;;;;;;9.45;2.90;;;11.30;97.80;;;;;;10377407;28;20541;-74
2020/12/17 13:07:37;;;;;;;7.30;2.45;;;11.40;97.40;;;;;;10358278;28;20112;-74
2020/12/17 13:12:38;;;;;;;4.72;2.45;;;11.30;97.20;;;;;;10362244;28;20054;-74
2020/12/17 13:17:39;;;;;;;5.85;2.75;;;11.40;97.20;;;;;;10383163;28;20476;-74
2020/12/17 13:22:41;;;;;;;10.18;4.65;;;11.40;96.60;;;;;;10356984;28;20560;-74
2020/12/17 13:27:43;;;;;;;8.25;3.50;;;11.40;96.30;;;;;;10358790;28;20078;-74
2020/12/17 13:32:45;;;;;;;11.52;4.88;;;11.50;95.80;;;;;;10362517;28;20056;-74
2020/12/17 13:37:47;;;;;;;7.25;3.15;;;11.60;95.50;;;;;;10363467;28;20046;-75
2020/12/17 13:42:48;;;;;;;7.47;2.90;;;11.50;95.50;;;;;;10361190;28;20129;-73
2020/12/17 13:47:50;;;;;;;9.40;4.20;;;11.50;95.60;;;;;;10359694;28;20042;-74
2020/12/17 13:52:51;;;;;;;5.75;2.50;;;11.50;95.40;;;;;;10353806;28;20065;-74
2020/12/17 13:57:53;;;;;;;4.80;2.40;;;11.50;95.20;;;;;;10359954;28;20124;-74
2020/12/17 14:02:54;;;;;;;5.38;2.30;;;11.40;95.20;;;;;;10357477;28;20054;-74
2020/12/17 14:07:58;;;;;;;6.72;2.28;;;11.50;95.10;;;;;;10371158;28;20050;-74
2020/12/17 14:12:59;;;;;;;7.22;1.90;;;11.40;94.70;;;;;;10362756;28;20104;-73
2020/12/17 14:18:01;;;;;;;9.45;2.80;;;11.30;95.00;;;;;;10363071;28;20057;-74
2020/12/17 14:23:02;;;;;;;6.50;2.50;;;11.30;94.80;;;;;;10360385;28;20271;-74
2020/12/17 14:28:04;;;;;;;9.07;2.38;;;11.30;94.80;;;;;;10351338;28;20077;-74
2020/12/17 14:33:05;;;;;;;9.82;3.67;;;11.30;94.30;;;;;;10352098;28;20085;-74
2020/12/17 14:38:08;;;;;;;10.10;3.55;;;11.20;94.20;;;;;;10361953;28;20081;-74
2020/12/17 14:43:09;;;;;;;3.67;2.08;;;11.20;94.20;;;;;;10351433;28;20122;-74
2020/12/17 14:48:11;;;;;;;6.43;2.65;;;11.00;94.00;;;;;;10349600;28;20453;-74
2020/12/17 14:53:13;;;;;;;6.55;2.85;;;10.90;94.00;;;;;;10358772;28;20521;-74
2020/12/17 14:58:14;;;;;;;5.95;3.10;;;10.70;93.80;;;;;;10360607;28;20065;-74
2020/12/17 15:03:16;;;;;;;9.10;3.90;;;10.60;94.20;;;;;;10353495;28;20069;-74
2020/12/17 15:08:18;;;;;;;10.68;4.57;;;10.50;93.90;;;;;;10361874;28;20132;-74
2020/12/17 15:13:19;;;;;;;12.75;5.72;;;10.40;93.90;;;;;;10348344;28;20097;-74
2020/12/17 15:18:21;;;;;;;9.88;4.22;;;10.40;93.80;;;;;;10354495;28;20109;-74
2020/12/17 15:23:22;;;;;;;5.78;2.78;;;10.30;93.80;;;;;;10352828;28;20070;-74
2020/12/17 15:28:24;;;;;;;14.88;12.05;;;10.30;93.80;;;;;;10358638;28;20045;-74
2020/12/17 15:33:26;;;;;;;9.32;5.90;;;10.10;93.90;;;;;;10359796;28;20050;-74
2020/12/17 15:38:28;;;;;;;4.85;2.30;;;10.10;93.60;;;;;;10353597;28;20164;-74
2020/12/17 15:43:32;;;;;;;4.70;1.65;;;10.00;94.00;;;;;;10352451;28;20046;-74
2020/12/17 15:48:37;;;;;;;6.18;1.83;;;9.90;93.80;;;;;;10360661;28;20046;-74
2020/12/17 15:53:41;;;;;;;5.28;1.63;;;9.80;93.90;;;;;;10353492;28;20046;-74
2020/12/17 15:58:46;;;;;;;6.97;2.38;;;9.70;94.10;;;;;;10363598;28;20089;-69
2020/12/17 16:03:48;;;;;;;5.47;1.70;;;9.60;94.50;;;;;;10356756;28;20046;-70
2020/12/17 16:08:49;;;;;;;3.95;1.75;;;9.40;94.40;;;;;;10358640;28;20550;-69
2020/12/17 16:13:51;;;;;;;4.50;1.70;;;9.30;95.10;;;;;;10356661;28;20046;-69
2020/12/17 16:18:53;;;;;;;4.10;1.77;;;9.20;95.10;;;;;;10363401;28;20326;-69
2020/12/17 16:23:54;;;;;;;4.80;1.73;;;9.10;95.30;;;;;;10363666;28;20057;-69
2020/12/17 16:28:56;;;;;;;6.22;1.83;;;8.90;95.50;;;;;;10365646;28;20153;-69
2020/12/17 16:33:57;;;;;;;5.28;2.03;;;8.80;95.90;;;;;;10378095;28;20125;-69
2020/12/17 16:38:59;;;;;;;6.68;1.90;;;8.70;95.90;;;;;;10360090;28;20132;-69
2020/12/17 16:44:02;;;;;;;6.68;1.92;;;8.70;96.10;;;;;;10360367;28;20042;-69
2020/12/17 16:49:07;;;;;;;7.00;2.00;;;8.70;96.30;;;;;;10358438;28;20054;-69
2020/12/17 16:54:09;;;;;;;8.10;2.10;;;8.70;96.30;;;;;;10355981;28;20038;-69
2020/12/17 16:59:10;;;;;;;6.70;1.95;;;8.60;96.20;;;;;;10357644;28;20097;-70
2020/12/17 17:04:12;;;;;;;4.10;2.00;;;8.70;96.10;;;;;;10359435;28;20045;-70
2020/12/17 17:09:13;;;;;;;6.93;2.30;;;8.70;96.00;;;;;;10359133;28;20050;-70
2020/12/17 17:14:15;;;;;;;7.50;3.40;;;8.70;96.00;;;;;;10376700;28;20855;-69
2020/12/17 17:19:25;;;;;;;12.38;4.25;;;8.50;96.20;;;;;;10352292;28;20061;-69
2020/12/17 17:24:26;;;;;;;10.82;3.95;;;8.30;96.60;;;;;;10366323;28;20525;-68
2020/12/17 17:29:28;;;;;;;11.90;7.22;;;8.30;97.00;;;;;;10354511;28;20485;-68
2020/12/17 17:34:30;;;;;;;12.88;7.55;;;8.10;97.10;;;;;;10361523;28;20046;-69
2020/12/17 17:39:31;;;;;;;13.10;5.65;;;8.10;97.20;;;;;;10352860;28;20056;-69
2020/12/17 17:44:33;;;;;;;9.48;4.88;;;8.00;97.20;;;;;;10359322;28;20137;-69
2020/12/17 17:49:41;;;;;;;9.02;4.80;;;7.90;97.60;;;;;;10354507;28;20050;-69
2020/12/17 17:54:43;;;;;;;8.68;3.83;;;7.70;97.60;;;;;;10354569;28;20046;-69
2020/12/17 17:59:45;;;;;;;7.50;4.18;;;7.60;97.80;;;;;;10357079;28;20100;-69
2020/12/17 18:04:46;;;;;;;8.80;4.47;;;7.50;98.10;;;;;;10351797;28;20042;-68
2020/12/17 18:09:49;;;;;;;8.02;4.50;;;7.40;98.10;;;;;;10348248;28;20050;-68
2020/12/17 18:14:50;;;;;;;11.63;5.50;;;7.30;98.10;;;;;;10356659;28;20509;-68
2020/12/17 18:19:56;;;;;;;15.88;5.97;;;7.30;98.40;;;;;;10349390;28;20054;-68
2020/12/17 18:24:58;;;;;;;10.80;5.38;;;7.20;98.00;;;;;;10350547;28;20038;-68
2020/12/17 18:29:59;;;;;;;10.93;4.40;;;7.10;98.30;;;;;;10352618;28;20050;-68
2020/12/17 18:35:03;;;;;;;6.97;3.60;;;7.10;98.70;;;;;;10352360;28;20137;-68
2020/12/17 18:40:04;;;;;;;10.20;4.90;;;7.20;98.80;;;;;;10355165;28;20054;-68
2020/12/17 18:45:06;;;;;;;9.82;3.53;;;7.10;99.10;;;;;;10351183;28;20414;-68
2020/12/17 18:50:12;;;;;;;10.60;3.97;;;6.90;98.70;;;;;;10358336;28;20490;-68
2020/12/17 18:55:14;;;;;;;13.40;6.88;;;6.80;98.80;;;;;;10354900;28;20041;-68
2020/12/17 19:00:15;;;;;;;26.23;13.35;;;6.50;99.10;;;;;;10365151;28;20054;-68
2020/12/17 19:05:17;;;;;;;9.10;5.47;;;6.40;99.50;;;;;;10354734;28;20045;-68
2020/12/17 19:10:23;;;;;;;12.52;6.30;;;6.60;99.90;;;;;;10353539;28;20413;-68
2020/12/17 19:15:25;;;;;;;12.05;7.32;;;6.70;99.60;;;;;;10349792;28;20073;-68
2020/12/17 19:20:32;;;;;;;13.95;7.35;;;6.70;99.30;;;;;;10350473;28;20074;-68
2020/12/17 19:25:33;;;;;;;14.07;7.47;;;6.60;99.00;;;;;;10359705;28;20133;-68
2020/12/17 19:30:35;;;;;;;14.05;7.72;;;6.60;99.10;;;;;;10360318;28;20050;-68
2020/12/17 19:35:36;;;;;;;10.38;6.78;;;6.50;99.10;;;;;;10360425;28;20044;-68
2020/12/17 19:40:38;;;;;;;13.55;5.80;;;6.40;99.90;;;;;;10361633;28;20420;-68
2020/12/17 19:45:40;;;;;;;9.98;5.18;;;6.40;99.90;;;;;;10367483;28;20046;-68
2020/12/17 19:50:46;;;;;;;8.25;5.63;;;6.50;99.70;;;;;;10359137;28;20081;-68
2020/12/17 19:55:50;;;;;;;17.80;9.48;;;6.60;99.50;;;;;;10365259;28;20442;-68
2020/12/17 20:00:52;;;;;;;13.05;7.82;;;6.50;99.10;;;;;;10367964;28;20485;-68
2020/12/17 20:05:56;;;;;;;14.63;8.10;;;6.50;99.30;;;;;;10360559;28;20133;-68
2020/12/17 20:10:58;;;;;;;11.20;7.75;;;6.40;99.00;;;;;;10366091;28;20050;-68
2020/12/17 20:15:59;;;;;;;21.92;10.65;;;6.40;99.30;;;;;;10364068;28;20411;-68
2020/12/17 20:21:01;;;;;;;14.48;9.00;;;6.30;99.10;;;;;;10361148;28;20046;-68
2020/12/17 20:26:03;;;;;;;15.13;7.82;;;6.20;99.40;;;;;;10361353;28;20113;-68
2020/12/17 20:31:04;;;;;;;11.25;7.25;;;6.20;99.30;;;;;;10360962;28;20426;-68
2020/12/17 20:36:06;;;;;;;17.15;8.68;;;6.20;99.10;;;;;;10356219;28;20069;-68
2020/12/17 20:41:08;;;;;;;16.65;8.95;;;6.00;99.10;;;;;;10365808;28;20077;-68
2020/12/17 20:46:13;;;;;;;11.93;7.80;;;6.00;99.10;;;;;;10362884;28;20073;-68
2020/12/17 20:51:21;;;;;;;13.38;8.10;;;5.90;99.30;;;;;;10365290;28;20069;-68
2020/12/17 20:56:23;;;;;;;12.40;7.45;;;5.80;99.30;;;;;;10367809;28;20129;-68
2020/12/17 21:01:25;;;;;;;12.50;8.27;;;5.80;99.60;;;;;;10358698;28;20045;-67
2020/12/17 21:06:28;;;;;;;11.52;7.43;;;5.90;99.50;;;;;;10350802;28;20049;-68
2020/12/17 21:11:30;;;;;;;13.68;8.90;;;5.80;99.50;;;;;;10353106;28;20129;-68
2020/12/17 21:16:31;;;;;;;12.65;8.85;;;5.80;99.50;;;;;;10352830;28;20134;-68
2020/12/17 21:21:40;;;;;;;186.75;21.73;;;5.90;99.40;;;;;;10363261;28;20042;-68
2020/12/17 21:26:42;;;;;;;86.18;12.65;;;5.70;99.30;;;;;;10357307;28;20133;-68
2020/12/17 21:31:51;;;;;;;16.45;10.75;;;5.60;99.40;;;;;;10362871;28;20479;-68
2020/12/17 21:36:57;;;;;;;14.73;9.18;;;5.60;99.80;;;;;;10359948;28;20556;-68
2020/12/17 21:41:58;;;;;;;15.57;9.52;;;5.70;99.90;;;;;;10360190;28;20080;-69
2020/12/17 21:47:00;;;;;;;16.58;11.23;;;5.70;99.80;;;;;;10353447;28;20387;-69
2020/12/17 21:52:02;;;;;;;14.63;10.02;;;5.60;99.90;;;;;;10364771;28;20113;-69
2020/12/17 21:57:08;;;;;;;21.27;11.88;;;5.80;99.90;;;;;;10361566;28;20069;-69
2020/12/17 22:02:11;;;;;;;19.30;12.27;;;5.80;99.60;;;;;;10349819;28;20053;-69
2020/12/17 22:07:12;;;;;;;15.82;10.57;;;5.80;99.40;;;;;;10355226;28;20053;-68
2020/12/17 22:12:14;;;;;;;22.23;11.95;;;5.80;99.90;;;;;;10352309;28;20059;-69
2020/12/17 22:17:16;;;;;;;15.52;10.82;;;5.90;99.90;;;;;;10362420;28;20135;-68
2020/12/17 22:22:19;;;;;;;16.15;9.85;;;5.90;99.70;;;;;;10363412;28;20045;-68
2020/12/17 22:27:20;;;;;;;17.27;11.00;;;5.80;99.60;;;;;;10364336;28;20077;-68
2020/12/17 22:32:23;;;;;;;19.67;13.25;;;5.70;99.70;;;;;;10359985;28;20442;-68
2020/12/17 22:37:24;;;;;;;15.75;8.82;;;5.60;99.30;;;;;;10331003;28;20427;-69
2020/12/17 22:42:26;;;;;;;18.00;11.63;;;5.40;99.90;;;;;;10338283;28;20133;-68
2020/12/17 22:47:28;;;;;;;18.42;11.30;;;5.60;99.90;;;;;;10376309;28;20054;-68
2020/12/17 22:52:33;;;;;;;27.75;11.85;;;5.60;99.10;;;;;;10330682;28;20058;-68
2020/12/17 22:57:35;;;;;;;13.05;8.85;;;5.50;99.20;;;;;;10337151;28;20449;-68
2020/12/17 23:02:37;;;;;;;12.70;8.77;;;5.40;99.50;;;;;;10369781;28;20046;-69
2020/12/17 23:07:38;;;;;;;15.02;8.70;;;5.50;99.50;;;;;;10353791;28;20058;-68
2020/12/17 23:12:44;;;;;;;19.73;14.13;;;5.40;99.30;;;;;;10336444;28;20443;-68
2020/12/17 23:17:46;;;;;;;22.45;13.70;;;5.20;99.20;;;;;;10383445;28;20053;-68
2020/12/17 23:22:48;;;;;;;15.38;10.55;;;5.10;99.30;;;;;;10349927;28;20532;-68
2020/12/17 23:27:50;;;;;;;24.38;14.68;;;5.10;99.50;;;;;;10337428;28;20084;-68
2020/12/17 23:32:51;;;;;;;17.35;11.07;;;5.10;99.00;;;;;;10363607;28;20521;-68
2020/12/17 23:37:53;;;;;;;20.88;14.48;;;5.00;99.10;;;;;;10376055;28;20541;-69
2020/12/17 23:42:54;;;;;;;18.58;11.57;;;4.70;98.50;;;;;;10390025;28;20108;-68
2020/12/17 23:47:56;;;;;;;21.48;11.80;;;4.60;99.40;;;;;;10372797;28;20042;-69
2020/12/17 23:53:05;;;;;;;33.88;17.48;;;4.80;99.50;;;;;;10374198;28;20434;-68
2020/12/17 23:58:06;;;;;;;20.88;11.32;;;4.70;99.00;;;;;;10372708;28;20132;-68
